sensor_id;sensor_type;location;lat;lon;timestamp;pressure;altitude;pressure_sealevel;temperature;humidity
83664;BME280;73634;47.068;15.426;2023-12-20T00:01:12;97303.00;;;1.33;76.89
83664;BME280;73634;47.068;15.426;2023-12-20T00:03:38;97302.44;;;1.20;77.77
83664;BME280;73634;47.068;15.426;2023-12-20T00:06:03;97300.84;;;1.07;78.10
83664;BME280;73634;47.068;15.426;2023-12-20T00:08:28;97293.47;;;0.99;78.27
83664;BME280;73634;47.068;15.426;2023-12-20T00:10:54;97294.56;;;0.91;78.82
83664;BME280;73634;47.068;15.426;2023-12-20T00:13:19;97285.09;;;0.92;78.83
83664;BME280;73634;47.068;15.426;2023-12-20T00:15:44;97283.88;;;0.94;78.31
83664;BME280;73634;47.068;15.426;2023-12-20T00:18:10;97275.28;;;0.89;79.07
83664;BME280;73634;47.068;15.426;2023-12-20T00:23:32;97276.69;;;0.73;79.59
83664;BME280;73634;47.068;15.426;2023-12-20T00:25:58;97270.31;;;0.64;79.83
83664;BME280;73634;47.068;15.426;2023-12-20T00:28:23;97261.50;;;0.60;80.04
83664;BME280;73634;47.068;15.426;2023-12-20T00:30:49;97265.28;;;0.57;80.02
83664;BME280;73634;47.068;15.426;2023-12-20T00:33:14;97249.63;;;0.65;81.55
83664;BME280;73634;47.068;15.426;2023-12-20T00:35:40;97251.41;;;0.65;80.75
83664;BME280;73634;47.068;15.426;2023-12-20T00:38:05;97256.38;;;0.60;80.87
83664;BME280;73634;47.068;15.426;2023-12-20T00:40:32;97253.56;;;0.50;81.29
83664;BME280;73634;47.068;15.426;2023-12-20T00:42:58;97258.75;;;0.43;81.79
83664;BME280;73634;47.068;15.426;2023-12-20T00:47:55;97249.06;;;0.33;81.97
83664;BME280;73634;47.068;15.426;2023-12-20T00:50:21;97249.06;;;0.33;81.75
83664;BME280;73634;47.068;15.426;2023-12-20T00:52:47;97242.75;;;0.18;82.05
83664;BME280;73634;47.068;15.426;2023-12-20T00:55:12;97234.66;;;0.03;82.71
83664;BME280;73634;47.068;15.426;2023-12-20T00:57:38;97225.38;;;-0.10;83.46
83664;BME280;73634;47.068;15.426;2023-12-20T01:00:04;97219.13;;;-0.14;83.96
83664;BME280;73634;47.068;15.426;2023-12-20T01:02:29;97215.56;;;-0.13;83.73
83664;BME280;73634;47.068;15.426;2023-12-20T01:04:55;97217.13;;;-0.12;84.29
83664;BME280;73634;47.068;15.426;2023-12-20T01:07:20;97220.25;;;-0.10;83.80
83664;BME280;73634;47.068;15.426;2023-12-20T01:09:45;97215.38;;;-0.12;84.50
83664;BME280;73634;47.068;15.426;2023-12-20T01:13:06;97217.50;;;-0.09;84.01
83664;BME280;73634;47.068;15.426;2023-12-20T01:15:34;97222.03;;;-0.11;83.91
83664;BME280;73634;47.068;15.426;2023-12-20T01:17:59;97227.72;;;-0.27;84.79
83664;BME280;73634;47.068;15.426;2023-12-20T01:20:24;97223.66;;;-0.35;85.26
83664;BME280;73634;47.068;15.426;2023-12-20T01:22:50;97225.94;;;-0.45;85.35
83664;BME280;73634;47.068;15.426;2023-12-20T01:25:16;97227.16;;;-0.47;85.35
83664;BME280;73634;47.068;15.426;2023-12-20T01:27:41;97219.03;;;-0.62;86.33
83664;BME280;73634;47.068;15.426;2023-12-20T01:30:07;97218.47;;;-0.64;86.26
83664;BME280;73634;47.068;15.426;2023-12-20T01:32:32;97217.88;;;-0.67;86.98
83664;BME280;73634;47.068;15.426;2023-12-20T01:37:34;97218.50;;;-0.71;86.31
83664;BME280;73634;47.068;15.426;2023-12-20T01:39:59;97215.59;;;-0.75;87.22
83664;BME280;73634;47.068;15.426;2023-12-20T01:42:25;97210.63;;;-0.70;86.67
83664;BME280;73634;47.068;15.426;2023-12-20T01:44:50;97200.00;;;-0.67;86.42
83664;BME280;73634;47.068;15.426;2023-12-20T01:47:16;97205.53;;;-0.70;87.11
83664;BME280;73634;47.068;15.426;2023-12-20T01:49:41;97202.41;;;-0.72;87.02
83664;BME280;73634;47.068;15.426;2023-12-20T01:52:08;97191.19;;;-0.71;87.17
83664;BME280;73634;47.068;15.426;2023-12-20T01:54:34;97197.09;;;-0.70;87.30
83664;BME280;73634;47.068;15.426;2023-12-20T01:57:00;97182.53;;;-0.70;87.22
83664;BME280;73634;47.068;15.426;2023-12-20T02:02:23;97180.13;;;-0.64;86.99
83664;BME280;73634;47.068;15.426;2023-12-20T02:04:48;97176.78;;;-0.65;86.37
83664;BME280;73634;47.068;15.426;2023-12-20T02:07:16;97165.84;;;-0.72;86.36
83664;BME280;73634;47.068;15.426;2023-12-20T02:09:42;97160.53;;;-0.71;85.95
83664;BME280;73634;47.068;15.426;2023-12-20T02:12:07;97155.28;;;-0.76;86.06
83664;BME280;73634;47.068;15.426;2023-12-20T02:14:33;97156.28;;;-0.77;85.94
83664;BME280;73634;47.068;15.426;2023-12-20T02:16:58;97151.38;;;-0.78;86.03
83664;BME280;73634;47.068;15.426;2023-12-20T02:19:23;97146.16;;;-0.83;85.32
83664;BME280;73634;47.068;15.426;2023-12-20T02:21:49;97141.16;;;-0.78;85.50
83664;BME280;73634;47.068;15.426;2023-12-20T02:26:34;97133.06;;;-0.75;85.03
83664;BME280;73634;47.068;15.426;2023-12-20T02:29:00;97128.31;;;-0.72;84.45
83664;BME280;73634;47.068;15.426;2023-12-20T02:31:25;97126.34;;;-0.70;84.73
83664;BME280;73634;47.068;15.426;2023-12-20T02:33:51;97123.56;;;-0.68;84.51
83664;BME280;73634;47.068;15.426;2023-12-20T02:36:16;97116.53;;;-0.73;84.90
83664;BME280;73634;47.068;15.426;2023-12-20T02:38:42;97113.00;;;-0.72;85.14
83664;BME280;73634;47.068;15.426;2023-12-20T02:41:07;97104.47;;;-0.65;84.97
83664;BME280;73634;47.068;15.426;2023-12-20T02:43:32;97099.94;;;-0.63;85.19
83664;BME280;73634;47.068;15.426;2023-12-20T02:45:57;97094.19;;;-0.59;84.79
83664;BME280;73634;47.068;15.426;2023-12-20T02:48:23;97083.75;;;-0.57;84.15
83664;BME280;73634;47.068;15.426;2023-12-20T02:53:27;97079.72;;;-0.65;84.46
83664;BME280;73634;47.068;15.426;2023-12-20T02:55:52;97079.28;;;-0.62;85.46
83664;BME280;73634;47.068;15.426;2023-12-20T02:58:18;97077.44;;;-0.55;84.73
83664;BME280;73634;47.068;15.426;2023-12-20T03:00:43;97075.94;;;-0.44;84.35
83664;BME280;73634;47.068;15.426;2023-12-20T03:03:09;97066.41;;;-0.37;83.52
83664;BME280;73634;47.068;15.426;2023-12-20T03:05:34;97057.75;;;-0.36;82.78
83664;BME280;73634;47.068;15.426;2023-12-20T03:08:00;97055.50;;;-0.44;83.12
83664;BME280;73634;47.068;15.426;2023-12-20T03:10:25;97048.91;;;-0.52;83.45
83664;BME280;73634;47.068;15.426;2023-12-20T03:12:50;97041.47;;;-0.53;83.58
83664;BME280;73634;47.068;15.426;2023-12-20T03:18:23;97042.28;;;-0.89;85.02
83664;BME280;73634;47.068;15.426;2023-12-20T03:20:48;97045.47;;;-0.94;85.35
83664;BME280;73634;47.068;15.426;2023-12-20T03:23:15;97039.03;;;-0.96;85.20
83664;BME280;73634;47.068;15.426;2023-12-20T03:25:41;97039.38;;;-0.93;85.98
83664;BME280;73634;47.068;15.426;2023-12-20T03:28:06;97039.38;;;-0.93;86.14
83664;BME280;73634;47.068;15.426;2023-12-20T03:30:32;97036.81;;;-0.93;86.11
83664;BME280;73634;47.068;15.426;2023-12-20T03:32:57;97033.00;;;-0.84;85.24
83664;BME280;73634;47.068;15.426;2023-12-20T03:35:22;97030.28;;;-0.89;85.52
83664;BME280;73634;47.068;15.426;2023-12-20T03:37:48;97033.41;;;-0.87;85.70
83664;BME280;73634;47.068;15.426;2023-12-20T03:42:34;97033.97;;;-1.03;85.11
83664;BME280;73634;47.068;15.426;2023-12-20T03:45:00;97039.38;;;-1.11;85.68
83664;BME280;73634;47.068;15.426;2023-12-20T03:47:25;97031.97;;;-1.19;86.02
83664;BME280;73634;47.068;15.426;2023-12-20T03:49:50;97026.53;;;-1.23;86.74
83664;BME280;73634;47.068;15.426;2023-12-20T03:52:16;97028.31;;;-1.23;87.07
83664;BME280;73634;47.068;15.426;2023-12-20T03:54:41;97027.13;;;-1.21;87.11
83664;BME280;73634;47.068;15.426;2023-12-20T03:57:07;97032.22;;;-1.21;87.38
83664;BME280;73634;47.068;15.426;2023-12-20T03:59:36;97034.63;;;-1.26;87.70
83664;BME280;73634;47.068;15.426;2023-12-20T04:02:02;97036.25;;;-1.31;87.85
83664;BME280;73634;47.068;15.426;2023-12-20T04:06:45;97043.94;;;-1.38;87.98
83664;BME280;73634;47.068;15.426;2023-12-20T04:09:10;97038.66;;;-1.37;88.70
83664;BME280;73634;47.068;15.426;2023-12-20T04:11:38;97038.44;;;-1.35;87.97
83664;BME280;73634;47.068;15.426;2023-12-20T04:14:03;97042.34;;;-1.32;87.99
83664;BME280;73634;47.068;15.426;2023-12-20T04:16:32;97036.41;;;-1.26;88.22
83664;BME280;73634;47.068;15.426;2023-12-20T04:18:57;97032.44;;;-1.22;87.47
83664;BME280;73634;47.068;15.426;2023-12-20T04:21:23;97026.53;;;-1.23;87.49
83664;BME280;73634;47.068;15.426;2023-12-20T04:23:48;97029.56;;;-1.14;87.42
83664;BME280;73634;47.068;15.426;2023-12-20T04:26:13;97025.03;;;-1.12;86.74
83664;BME280;73634;47.068;15.426;2023-12-20T04:31:12;97019.16;;;-1.13;86.87
83664;BME280;73634;47.068;15.426;2023-12-20T04:33:37;97010.22;;;-1.04;87.44
83664;BME280;73634;47.068;15.426;2023-12-20T04:36:03;97019.66;;;-1.04;87.10
83664;BME280;73634;47.068;15.426;2023-12-20T04:38:29;97014.75;;;-1.06;87.29
83664;BME280;73634;47.068;15.426;2023-12-20T04:40:55;97018.78;;;-1.16;86.60
83664;BME280;73634;47.068;15.426;2023-12-20T04:43:21;97014.91;;;-1.19;86.88
83664;BME280;73634;47.068;15.426;2023-12-20T04:45:46;97015.78;;;-1.25;87.75
83664;BME280;73634;47.068;15.426;2023-12-20T04:48:12;97019.94;;;-1.30;88.26
83664;BME280;73634;47.068;15.426;2023-12-20T04:50:37;97019.63;;;-1.41;88.32
83664;BME280;73634;47.068;15.426;2023-12-20T04:53:03;97012.00;;;-1.41;88.25
83664;BME280;73634;47.068;15.426;2023-12-20T04:56:38;97009.84;;;-1.44;88.34
83664;BME280;73634;47.068;15.426;2023-12-20T04:59:03;97018.97;;;-1.54;88.54
83664;BME280;73634;47.068;15.426;2023-12-20T05:01:28;97021.31;;;-1.53;88.93
83664;BME280;73634;47.068;15.426;2023-12-20T05:03:54;97018.75;;;-1.53;88.93
83664;BME280;73634;47.068;15.426;2023-12-20T05:06:19;97024.84;;;-1.54;88.80
83664;BME280;73634;47.068;15.426;2023-12-20T05:08:44;97019.91;;;-1.49;88.31
83664;BME280;73634;47.068;15.426;2023-12-20T05:11:10;97033.09;;;-1.52;88.43
83664;BME280;73634;47.068;15.426;2023-12-20T05:13:35;97024.22;;;-1.49;88.17
83664;BME280;73634;47.068;15.426;2023-12-20T05:16:01;97021.47;;;-1.48;88.72
83664;BME280;73634;47.068;15.426;2023-12-20T05:21:18;97019.44;;;-1.39;89.01
83664;BME280;73634;47.068;15.426;2023-12-20T05:23:45;97012.81;;;-1.47;88.96
83664;BME280;73634;47.068;15.426;2023-12-20T05:26:10;97014.44;;;-1.52;88.94
83664;BME280;73634;47.068;15.426;2023-12-20T05:28:35;97007.50;;;-1.45;88.13
83664;BME280;73634;47.068;15.426;2023-12-20T05:31:01;97007.66;;;-1.40;88.43
83664;BME280;73634;47.068;15.426;2023-12-20T05:33:26;97005.19;;;-1.28;88.27
83664;BME280;73634;47.068;15.426;2023-12-20T05:35:52;97006.13;;;-1.23;88.22
83664;BME280;73634;47.068;15.426;2023-12-20T05:38:17;97009.47;;;-1.22;88.23
83664;BME280;73634;47.068;15.426;2023-12-20T05:40:43;97003.13;;;-1.20;87.72
83664;BME280;73634;47.068;15.426;2023-12-20T05:46:15;96989.88;;;-1.10;88.64
83664;BME280;73634;47.068;15.426;2023-12-20T05:48:40;96986.03;;;-1.01;87.60
83664;BME280;73634;47.068;15.426;2023-12-20T05:51:06;96997.66;;;-1.05;87.35
83664;BME280;73634;47.068;15.426;2023-12-20T05:53:31;96992.91;;;-1.02;87.20
83664;BME280;73634;47.068;15.426;2023-12-20T05:55:56;96999.31;;;-0.92;86.86
83664;BME280;73634;47.068;15.426;2023-12-20T05:58:22;96999.59;;;-0.82;86.74
83664;BME280;73634;47.068;15.426;2023-12-20T06:00:47;97004.50;;;-0.69;86.18
83664;BME280;73634;47.068;15.426;2023-12-20T06:03:14;97001.84;;;-0.44;83.83
83664;BME280;73634;47.068;15.426;2023-12-20T06:05:39;96995.66;;;-0.25;82.90
83664;BME280;73634;47.068;15.426;2023-12-20T06:08:05;97003.28;;;0.05;80.69
83664;BME280;73634;47.068;15.426;2023-12-20T06:12:41;97006.81;;;0.86;75.94
83664;BME280;73634;47.068;15.426;2023-12-20T06:15:07;97001.13;;;1.07;74.59
83664;BME280;73634;47.068;15.426;2023-12-20T06:17:32;97000.38;;;1.23;73.64
83664;BME280;73634;47.068;15.426;2023-12-20T06:19:58;96995.38;;;1.57;71.91
83664;BME280;73634;47.068;15.426;2023-12-20T06:22:23;96995.00;;;1.82;70.43
83664;BME280;73634;47.068;15.426;2023-12-20T06:24:48;96992.47;;;1.98;69.34
83664;BME280;73634;47.068;15.426;2023-12-20T06:27:14;96988.25;;;2.09;69.12
83664;BME280;73634;47.068;15.426;2023-12-20T06:29:39;96989.88;;;2.15;68.74
83664;BME280;73634;47.068;15.426;2023-12-20T06:32:06;96998.44;;;2.21;68.22
83664;BME280;73634;47.068;15.426;2023-12-20T06:37:10;96992.84;;;2.24;68.25
83664;BME280;73634;47.068;15.426;2023-12-20T06:39:35;96997.75;;;2.09;68.61
83664;BME280;73634;47.068;15.426;2023-12-20T06:42:00;96994.78;;;2.00;69.39
83664;BME280;73634;47.068;15.426;2023-12-20T06:44:26;97010.41;;;1.82;70.42
83664;BME280;73634;47.068;15.426;2023-12-20T06:46:51;97012.25;;;1.70;71.22
83664;BME280;73634;47.068;15.426;2023-12-20T06:49:17;97014.81;;;1.70;71.01
83664;BME280;73634;47.068;15.426;2023-12-20T06:51:43;97006.97;;;1.76;71.04
83664;BME280;73634;47.068;15.426;2023-12-20T06:54:09;97017.09;;;1.83;70.71
83664;BME280;73634;47.068;15.426;2023-12-20T06:56:34;97023.50;;;1.97;69.93
83664;BME280;73634;47.068;15.426;2023-12-20T07:01:57;97027.13;;;1.84;71.31
83664;BME280;73634;47.068;15.426;2023-12-20T07:04:23;97035.00;;;1.38;73.51
83664;BME280;73634;47.068;15.426;2023-12-20T07:06:48;97033.88;;;1.33;74.49
83664;BME280;73634;47.068;15.426;2023-12-20T07:09:17;97043.97;;;1.52;73.90
83664;BME280;73634;47.068;15.426;2023-12-20T07:11:42;97045.16;;;1.61;74.09
83664;BME280;73634;47.068;15.426;2023-12-20T07:14:08;97048.66;;;1.55;73.72
83664;BME280;73634;47.068;15.426;2023-12-20T07:16:33;97055.63;;;1.31;74.99
83664;BME280;73634;47.068;15.426;2023-12-20T07:19:00;97058.69;;;1.16;75.94
83664;BME280;73634;47.068;15.426;2023-12-20T07:21:25;97061.91;;;1.12;75.84
83664;BME280;73634;47.068;15.426;2023-12-20T07:23:50;97066.09;;;1.29;75.59
83664;BME280;73634;47.068;15.426;2023-12-20T07:26:16;97071.22;;;1.41;75.04
83664;BME280;73634;47.068;15.426;2023-12-20T07:30:08;97080.03;;;1.33;75.57
83664;BME280;73634;47.068;15.426;2023-12-20T07:32:34;97085.38;;;1.20;75.64
83664;BME280;73634;47.068;15.426;2023-12-20T07:34:59;97090.81;;;1.36;75.84
83664;BME280;73634;47.068;15.426;2023-12-20T07:37:24;97090.34;;;1.50;74.79
83664;BME280;73634;47.068;15.426;2023-12-20T07:39:50;97087.25;;;1.37;73.96
83664;BME280;73634;47.068;15.426;2023-12-20T07:42:15;97091.16;;;1.27;74.96
83664;BME280;73634;47.068;15.426;2023-12-20T07:44:40;97099.53;;;1.34;74.37
83664;BME280;73634;47.068;15.426;2023-12-20T07:47:06;97094.63;;;1.33;74.65
83664;BME280;73634;47.068;15.426;2023-12-20T07:49:32;97092.16;;;1.38;74.91
83664;BME280;73634;47.068;15.426;2023-12-20T07:55:04;97105.84;;;1.55;74.18
83664;BME280;73634;47.068;15.426;2023-12-20T07:57:30;97117.69;;;1.73;73.88
83664;BME280;73634;47.068;15.426;2023-12-20T07:59:56;97125.16;;;1.75;73.84
83664;BME280;73634;47.068;15.426;2023-12-20T08:02:21;97125.41;;;1.73;74.10
83664;BME280;73634;47.068;15.426;2023-12-20T08:04:46;97126.72;;;1.76;74.62
83664;BME280;73634;47.068;15.426;2023-12-20T08:07:12;97124.47;;;1.79;74.45
83664;BME280;73634;47.068;15.426;2023-12-20T08:09:37;97123.47;;;1.80;74.57
83664;BME280;73634;47.068;15.426;2023-12-20T08:12:03;97124.91;;;1.88;74.17
83664;BME280;73634;47.068;15.426;2023-12-20T08:14:28;97127.03;;;1.91;74.15
83664;BME280;73634;47.068;15.426;2023-12-20T08:16:53;97124.72;;;2.06;74.60
83664;BME280;73634;47.068;15.426;2023-12-20T08:21:14;97123.06;;;2.28;73.40
83664;BME280;73634;47.068;15.426;2023-12-20T08:23:40;97121.50;;;2.27;72.89
83664;BME280;73634;47.068;15.426;2023-12-20T08:26:08;97125.53;;;2.40;73.14
83664;BME280;73634;47.068;15.426;2023-12-20T08:28:34;97129.38;;;2.54;72.05
83664;BME280;73634;47.068;15.426;2023-12-20T08:31:00;97119.19;;;2.59;71.72
83664;BME280;73634;47.068;15.426;2023-12-20T08:33:25;97118.88;;;2.56;71.70
83664;BME280;73634;47.068;15.426;2023-12-20T08:35:50;97124.53;;;2.58;71.12
83664;BME280;73634;47.068;15.426;2023-12-20T08:38:16;97127.34;;;2.56;72.24
83664;BME280;73634;47.068;15.426;2023-12-20T08:40:43;97142.84;;;2.61;71.15
83664;BME280;73634;47.068;15.426;2023-12-20T08:43:11;97133.03;;;2.58;71.88
83664;BME280;73634;47.068;15.426;2023-12-20T08:46:56;97127.88;;;2.92;70.29
83664;BME280;73634;47.068;15.426;2023-12-20T08:49:22;97139.00;;;2.81;71.14
83664;BME280;73634;47.068;15.426;2023-12-20T08:51:47;97139.47;;;2.94;70.13
83664;BME280;73634;47.068;15.426;2023-12-20T08:54:13;97141.13;;;3.00;70.52
83664;BME280;73634;47.068;15.426;2023-12-20T08:56:38;97132.84;;;3.37;68.68
83664;BME280;73634;47.068;15.426;2023-12-20T08:59:04;97143.53;;;3.07;69.91
83664;BME280;73634;47.068;15.426;2023-12-20T09:01:29;97152.66;;;2.64;71.46
83664;BME280;73634;47.068;15.426;2023-12-20T09:03:55;97162.38;;;2.62;72.20
83664;BME280;73634;47.068;15.426;2023-12-20T09:06:20;97163.88;;;2.75;72.79
83664;BME280;73634;47.068;15.426;2023-12-20T09:08:45;97155.69;;;2.95;71.70
83664;BME280;73634;47.068;15.426;2023-12-20T09:12:37;97143.91;;;2.82;70.52
83664;BME280;73634;47.068;15.426;2023-12-20T09:15:05;97137.72;;;2.78;71.63
83664;BME280;73634;47.068;15.426;2023-12-20T09:17:30;97121.19;;;2.41;72.72
83664;BME280;73634;47.068;15.426;2023-12-20T09:19:56;97123.84;;;2.29;73.67
83664;BME280;73634;47.068;15.426;2023-12-20T09:22:21;97133.81;;;2.59;72.13
83664;BME280;73634;47.068;15.426;2023-12-20T09:24:47;97140.59;;;3.20;69.59
83664;BME280;73634;47.068;15.426;2023-12-20T09:27:12;97130.53;;;2.97;69.83
83664;BME280;73634;47.068;15.426;2023-12-20T09:29:38;97120.69;;;3.11;69.86
83664;BME280;73634;47.068;15.426;2023-12-20T09:32:03;97126.31;;;3.29;68.49
83664;BME280;73634;47.068;15.426;2023-12-20T09:34:29;97125.28;;;3.47;67.52
83664;BME280;73634;47.068;15.426;2023-12-20T09:38:02;97142.59;;;3.35;68.52
83664;BME280;73634;47.068;15.426;2023-12-20T09:40:28;97147.16;;;3.72;67.90
83664;BME280;73634;47.068;15.426;2023-12-20T09:42:58;97142.19;;;3.65;66.99
83664;BME280;73634;47.068;15.426;2023-12-20T09:45:27;97135.44;;;3.81;67.56
83664;BME280;73634;47.068;15.426;2023-12-20T09:47:53;97129.53;;;4.34;65.73
83664;BME280;73634;47.068;15.426;2023-12-20T09:50:22;97121.81;;;4.66;64.13
83664;BME280;73634;47.068;15.426;2023-12-20T09:52:50;97106.63;;;4.69;63.51
83664;BME280;73634;47.068;15.426;2023-12-20T09:55:20;97093.25;;;4.73;64.28
83664;BME280;73634;47.068;15.426;2023-12-20T09:57:47;97092.16;;;4.63;63.32
83664;BME280;73634;47.068;15.426;2023-12-20T10:02:31;97108.81;;;5.92;61.01
83664;BME280;73634;47.068;15.426;2023-12-20T10:04:57;97092.22;;;7.20;57.16
83664;BME280;73634;47.068;15.426;2023-12-20T10:07:23;97086.84;;;8.15;52.50
83664;BME280;73634;47.068;15.426;2023-12-20T10:09:49;97093.63;;;7.62;53.89
83664;BME280;73634;47.068;15.426;2023-12-20T10:12:15;97107.31;;;6.73;55.66
83664;BME280;73634;47.068;15.426;2023-12-20T10:14:41;97101.88;;;6.28;57.00
83664;BME280;73634;47.068;15.426;2023-12-20T10:17:06;97114.25;;;5.96;58.36
83664;BME280;73634;47.068;15.426;2023-12-20T10:19:32;97101.09;;;6.23;57.52
83664;BME280;73634;47.068;15.426;2023-12-20T10:22:04;97096.44;;;6.20;56.90
83664;BME280;73634;47.068;15.426;2023-12-20T10:27:06;97088.38;;;5.18;60.40
83664;BME280;73634;47.068;15.426;2023-12-20T10:29:33;97083.91;;;5.71;59.47
83664;BME280;73634;47.068;15.426;2023-12-20T10:31:59;97078.63;;;5.35;60.42
83664;BME280;73634;47.068;15.426;2023-12-20T10:34:24;97077.38;;;5.43;60.66
83664;BME280;73634;47.068;15.426;2023-12-20T10:36:49;97091.75;;;5.24;61.53
83664;BME280;73634;47.068;15.426;2023-12-20T10:39:15;97091.75;;;5.19;61.57
83664;BME280;73634;47.068;15.426;2023-12-20T10:41:41;97082.28;;;5.45;60.82
83664;BME280;73634;47.068;15.426;2023-12-20T10:44:08;97088.47;;;5.39;61.59
83664;BME280;73634;47.068;15.426;2023-12-20T10:46:34;97084.28;;;5.90;60.16
83664;BME280;73634;47.068;15.426;2023-12-20T10:51:37;97082.25;;;6.32;57.89
83664;BME280;73634;47.068;15.426;2023-12-20T10:54:02;97083.78;;;6.44;58.13
83664;BME280;73634;47.068;15.426;2023-12-20T10:56:32;97070.63;;;6.35;58.33
83664;BME280;73634;47.068;15.426;2023-12-20T10:59:01;97074.25;;;6.24;58.42
83664;BME280;73634;47.068;15.426;2023-12-20T11:03:54;97060.53;;;6.08;58.29
83664;BME280;73634;47.068;15.426;2023-12-20T11:09:24;97059.78;;;5.30;62.42
83664;BME280;73634;47.068;15.426;2023-12-20T11:12:20;97065.41;;;5.22;62.26
83664;BME280;73634;47.068;15.426;2023-12-20T11:16:03;97058.81;;;5.41;62.24
83664;BME280;73634;47.068;15.426;2023-12-20T11:18:30;97053.66;;;5.41;61.79
83664;BME280;73634;47.068;15.426;2023-12-20T11:21:01;97062.47;;;5.55;62.18
83664;BME280;73634;47.068;15.426;2023-12-20T11:23:31;97073.09;;;5.74;60.52
83664;BME280;73634;47.068;15.426;2023-12-20T11:25:59;97064.41;;;5.95;60.60
83664;BME280;73634;47.068;15.426;2023-12-20T11:28:25;97058.44;;;5.90;60.74
83664;BME280;73634;47.068;15.426;2023-12-20T11:33:24;97050.00;;;5.37;62.21
83664;BME280;73634;47.068;15.426;2023-12-20T11:37:29;97050.69;;;5.12;62.94
83664;BME280;73634;47.068;15.426;2023-12-20T11:40:03;97055.09;;;5.17;63.68
83664;BME280;73634;47.068;15.426;2023-12-20T11:42:42;97049.19;;;5.16;63.85
83664;BME280;73634;47.068;15.426;2023-12-20T11:45:11;97046.88;;;5.20;63.93
83664;BME280;73634;47.068;15.426;2023-12-20T11:47:41;97046.72;;;5.62;62.60
83664;BME280;73634;47.068;15.426;2023-12-20T11:50:07;97045.81;;;5.93;61.32
83664;BME280;73634;47.068;15.426;2023-12-20T11:52:32;97044.00;;;6.04;61.07
83664;BME280;73634;47.068;15.426;2023-12-20T11:54:58;97047.28;;;5.74;62.23
83664;BME280;73634;47.068;15.426;2023-12-20T11:57:24;97030.47;;;5.61;63.04
83664;BME280;73634;47.068;15.426;2023-12-20T12:02:57;97022.31;;;6.20;61.74
83664;BME280;73634;47.068;15.426;2023-12-20T12:05:23;97025.16;;;6.29;61.04
83664;BME280;73634;47.068;15.426;2023-12-20T12:07:48;97022.31;;;6.25;60.64
83664;BME280;73634;47.068;15.426;2023-12-20T12:10:14;97015.28;;;6.77;59.30
83664;BME280;73634;47.068;15.426;2023-12-20T12:12:39;97015.50;;;6.80;58.43
83664;BME280;73634;47.068;15.426;2023-12-20T12:15:05;97006.72;;;6.81;57.25
83664;BME280;73634;47.068;15.426;2023-12-20T12:17:31;97014.31;;;5.91;59.81
83664;BME280;73634;47.068;15.426;2023-12-20T12:20:03;97010.69;;;5.92;60.66
83664;BME280;73634;47.068;15.426;2023-12-20T12:22:30;97016.63;;;6.08;60.53
83664;BME280;73634;47.068;15.426;2023-12-20T12:27:27;97004.22;;;6.10;59.80
83664;BME280;73634;47.068;15.426;2023-12-20T12:30:03;96993.91;;;6.35;59.73
83664;BME280;73634;47.068;15.426;2023-12-20T12:32:29;96995.44;;;6.37;59.22
83664;BME280;73634;47.068;15.426;2023-12-20T12:34:54;96995.19;;;6.33;59.55
83664;BME280;73634;47.068;15.426;2023-12-20T12:37:20;96995.19;;;6.38;59.61
83664;BME280;73634;47.068;15.426;2023-12-20T12:39:46;96991.28;;;6.46;58.57
83664;BME280;73634;47.068;15.426;2023-12-20T12:42:12;96986.16;;;6.25;59.48
83664;BME280;73634;47.068;15.426;2023-12-20T12:44:37;96992.88;;;5.91;60.80
83664;BME280;73634;47.068;15.426;2023-12-20T12:47:02;96992.09;;;5.95;60.69
83664;BME280;73634;47.068;15.426;2023-12-20T12:51:37;96991.81;;;6.43;59.36
83664;BME280;73634;47.068;15.426;2023-12-20T12:54:03;96994.38;;;6.53;58.47
83664;BME280;73634;47.068;15.426;2023-12-20T12:56:43;96988.69;;;6.66;58.61
83664;BME280;73634;47.068;15.426;2023-12-20T12:59:13;96983.25;;;6.52;57.73
83664;BME280;73634;47.068;15.426;2023-12-20T13:01:38;96995.66;;;6.50;58.55
83664;BME280;73634;47.068;15.426;2023-12-20T13:04:04;96993.31;;;6.69;57.98
83664;BME280;73634;47.068;15.426;2023-12-20T13:06:32;96988.56;;;6.96;57.83
83664;BME280;73634;47.068;15.426;2023-12-20T13:08:57;96986.31;;;7.39;56.55
83664;BME280;73634;47.068;15.426;2023-12-20T13:14:18;96962.50;;;8.44;52.96
83664;BME280;73634;47.068;15.426;2023-12-20T13:16:43;96966.84;;;8.78;51.56
83664;BME280;73634;47.068;15.426;2023-12-20T13:19:10;96968.25;;;9.13;51.60
83664;BME280;73634;47.068;15.426;2023-12-20T13:21:36;96970.91;;;9.26;50.92
83664;BME280;73634;47.068;15.426;2023-12-20T13:24:01;96972.88;;;9.34;50.94
83664;BME280;73634;47.068;15.426;2023-12-20T13:26:27;96971.34;;;9.52;49.61
83664;BME280;73634;47.068;15.426;2023-12-20T13:28:54;96975.91;;;8.99;51.29
83664;BME280;73634;47.068;15.426;2023-12-20T13:31:20;96976.53;;;9.15;50.46
83664;BME280;73634;47.068;15.426;2023-12-20T13:33:45;96968.09;;;9.23;50.32
83664;BME280;73634;47.068;15.426;2023-12-20T13:38:58;96972.81;;;8.49;52.73
83664;BME280;73634;47.068;15.426;2023-12-20T13:41:24;96976.78;;;8.42;52.96
83664;BME280;73634;47.068;15.426;2023-12-20T13:43:49;96967.66;;;8.15;53.88
83664;BME280;73634;47.068;15.426;2023-12-20T13:46:15;96976.06;;;7.63;55.50
83664;BME280;73634;47.068;15.426;2023-12-20T13:48:40;96978.75;;;6.98;57.27
83664;BME280;73634;47.068;15.426;2023-12-20T13:51:06;96977.44;;;7.01;57.58
83664;BME280;73634;47.068;15.426;2023-12-20T13:53:32;96977.59;;;7.20;57.25
83664;BME280;73634;47.068;15.426;2023-12-20T13:55:58;96981.69;;;7.31;56.98
83664;BME280;73634;47.068;15.426;2023-12-20T13:58:25;96986.88;;;7.31;57.58
83664;BME280;73634;47.068;15.426;2023-12-20T14:02:43;97001.47;;;7.12;58.12
83664;BME280;73634;47.068;15.426;2023-12-20T14:05:11;97004.06;;;7.07;58.58
83664;BME280;73634;47.068;15.426;2023-12-20T14:07:37;97009.25;;;7.07;57.90
83664;BME280;73634;47.068;15.426;2023-12-20T14:10:03;97004.59;;;7.03;59.03
83664;BME280;73634;47.068;15.426;2023-12-20T14:12:28;97006.66;;;7.07;58.82
83664;BME280;73634;47.068;15.426;2023-12-20T14:14:53;97003.28;;;7.11;58.78
83664;BME280;73634;47.068;15.426;2023-12-20T14:17:21;97009.53;;;6.95;58.97